createdAt,value
2018-10-19T00:01:07.716Z,99.90
2018-10-19T00:03:35.826Z,99.90
2018-10-19T00:06:03.963Z,99.90
2018-10-19T00:08:32.143Z,99.90
2018-10-19T00:11:00.293Z,99.90
2018-10-19T00:13:28.387Z,99.90
2018-10-19T00:15:56.504Z,99.90
2018-10-19T00:18:24.712Z,99.90
2018-10-19T00:20:52.848Z,99.90
2018-10-19T00:23:20.988Z,99.90
2018-10-19T00:25:49.104Z,99.90
2018-10-19T00:28:17.235Z,99.90
2018-10-19T00:30:45.404Z,99.90
2018-10-19T00:33:13.606Z,99.90
2018-10-19T00:35:41.665Z,99.90
2018-10-19T00:38:09.795Z,99.90
2018-10-19T00:40:37.899Z,99.90
2018-10-19T00:43:06.046Z,99.90
2018-10-19T00:45:39.633Z,99.90
2018-10-19T00:48:13.272Z,99.90
2018-10-19T00:50:41.618Z,99.90
2018-10-19T00:53:10.273Z,99.90
2018-10-19T00:55:38.814Z,99.90
2018-10-19T00:58:06.938Z,99.90
2018-10-19T01:00:36.287Z,99.90
2018-10-19T01:03:04.651Z,99.90
2018-10-19T01:05:32.787Z,99.90
2018-10-19T01:08:00.923Z,99.90
2018-10-19T01:10:29.033Z,99.90
2018-10-19T01:12:57.994Z,99.90
2018-10-19T01:15:27.291Z,99.90
2018-10-19T01:17:55.488Z,99.90
2018-10-19T01:20:23.607Z,99.90
2018-10-19T01:22:51.724Z,99.90
2018-10-19T01:25:19.867Z,99.90
2018-10-19T01:27:48.025Z,99.90
2018-10-19T01:30:16.132Z,99.90
2018-10-19T01:32:44.275Z,99.90
2018-10-19T01:35:13.150Z,99.90
2018-10-19T01:37:41.352Z,99.90
2018-10-19T01:40:10.867Z,99.90
2018-10-19T01:42:39.385Z,99.90
2018-10-19T01:45:09.226Z,99.90
2018-10-19T01:47:37.632Z,99.90
2018-10-19T01:50:05.811Z,99.90
2018-10-19T01:52:33.924Z,99.90
2018-10-19T01:55:02.055Z,99.90
2018-10-19T01:57:30.213Z,99.90
2018-10-19T01:59:58.354Z,99.90
2018-10-19T02:02:26.471Z,99.90
2018-10-19T02:04:54.637Z,99.90
2018-10-19T02:07:22.742Z,99.90
2018-10-19T02:09:50.965Z,99.90
2018-10-19T02:12:19.072Z,99.90
2018-10-19T02:14:47.186Z,99.90
2018-10-19T02:17:15.403Z,99.90
2018-10-19T02:19:43.444Z,99.90
2018-10-19T02:22:11.576Z,99.90
2018-10-19T02:24:39.695Z,99.90
2018-10-19T02:27:08.240Z,99.90
2018-10-19T02:29:36.299Z,99.90
2018-10-19T02:32:04.417Z,99.90
2018-10-19T02:34:32.524Z,99.90
2018-10-19T02:37:00.629Z,99.90
2018-10-19T02:39:28.750Z,99.90
2018-10-19T02:41:56.921Z,99.90
2018-10-19T02:44:25.047Z,99.90
2018-10-19T02:46:53.158Z,99.90
2018-10-19T02:49:21.272Z,99.90
2018-10-19T02:51:49.385Z,99.90
2018-10-19T02:54:17.520Z,99.90
2018-10-19T02:56:45.616Z,99.90
2018-10-19T02:59:13.762Z,99.90
2018-10-19T03:01:41.862Z,99.90
2018-10-19T03:04:09.992Z,99.90
2018-10-19T03:06:38.095Z,99.90
2018-10-19T03:09:09.076Z,99.90
2018-10-19T03:11:37.217Z,99.90
2018-10-19T03:14:05.271Z,99.90
2018-10-19T03:16:33.389Z,99.90
2018-10-19T03:19:01.728Z,99.90
2018-10-19T03:21:29.849Z,99.90
2018-10-19T03:23:58.013Z,99.90
2018-10-19T03:26:26.189Z,99.90
2018-10-19T03:28:54.382Z,99.90
2018-10-19T03:31:22.444Z,99.90
2018-10-19T03:33:50.566Z,99.90
2018-10-19T03:36:18.840Z,99.90
2018-10-19T03:38:46.950Z,99.90
2018-10-19T03:41:15.145Z,99.90
2018-10-19T03:43:43.263Z,99.90
2018-10-19T03:46:11.475Z,99.90
2018-10-19T03:48:39.596Z,99.90
2018-10-19T03:51:07.809Z,99.90
2018-10-19T03:53:35.856Z,99.90
2018-10-19T03:56:04.020Z,99.90
2018-10-19T03:58:32.116Z,99.90
2018-10-19T04:01:00.252Z,99.90
2018-10-19T04:03:28.443Z,99.90
2018-10-19T04:05:56.620Z,99.90
2018-10-19T04:08:24.763Z,99.90
2018-10-19T04:10:52.932Z,99.90
2018-10-19T04:13:21.054Z,99.90
2018-10-19T04:15:49.190Z,99.90
2018-10-19T04:18:17.328Z,99.90
2018-10-19T04:20:45.472Z,99.90
2018-10-19T04:23:13.825Z,99.90
2018-10-19T04:25:41.906Z,99.90
2018-10-19T04:28:10.011Z,99.90
2018-10-19T04:30:38.138Z,99.90
2018-10-19T04:33:06.532Z,99.90
2018-10-19T04:35:34.635Z,99.90
2018-10-19T04:38:03.192Z,99.90
2018-10-19T04:40:31.300Z,99.90
2018-10-19T04:42:59.399Z,99.90
2018-10-19T04:45:27.538Z,99.90
2018-10-19T04:47:55.667Z,99.90
2018-10-19T04:50:23.785Z,99.90
2018-10-19T04:52:51.891Z,99.80
2018-10-19T04:55:21.176Z,99.90
2018-10-19T04:57:50.784Z,99.90
2018-10-19T05:00:20.249Z,99.90
2018-10-19T05:02:49.035Z,99.90
2018-10-19T05:05:17.217Z,99.90
2018-10-19T05:07:45.260Z,99.90
2018-10-19T05:10:13.359Z,99.90
2018-10-19T05:12:41.577Z,99.90
2018-10-19T05:15:10.660Z,99.90
2018-10-19T05:17:38.774Z,99.90
2018-10-19T05:20:08.520Z,99.90
2018-10-19T05:22:36.827Z,99.90
2018-10-19T05:25:07.014Z,99.90
2018-10-19T05:27:35.156Z,99.90
2018-10-19T05:30:03.262Z,99.90
2018-10-19T05:32:31.355Z,99.90
2018-10-19T05:35:00.297Z,99.90
2018-10-19T05:37:28.579Z,99.90
2018-10-19T05:39:56.728Z,99.40
2018-10-19T05:42:24.836Z,99.50
2018-10-19T05:44:52.971Z,99.90
2018-10-19T05:47:21.085Z,99.20
2018-10-19T05:49:49.367Z,99.60
2018-10-19T05:52:17.551Z,99.50
2018-10-19T05:54:45.705Z,99.90
2018-10-19T05:57:13.813Z,99.90
2018-10-19T05:59:41.931Z,99.90
2018-10-19T06:02:10.051Z,99.80
2018-10-19T06:04:38.172Z,99.80
2018-10-19T06:07:06.273Z,99.90
2018-10-19T06:09:34.368Z,99.90
2018-10-19T06:12:02.488Z,99.90
2018-10-19T06:14:30.581Z,99.90
2018-10-19T06:16:58.700Z,99.90
2018-10-19T06:19:26.815Z,99.90
2018-10-19T06:21:54.924Z,99.90
2018-10-19T06:24:23.031Z,99.90
2018-10-19T06:26:51.149Z,99.90
2018-10-19T06:29:19.276Z,99.90
2018-10-19T06:31:47.388Z,99.90
2018-10-19T06:34:15.487Z,99.90
2018-10-19T06:36:43.591Z,99.90
2018-10-19T06:39:12.296Z,99.90
2018-10-19T06:41:40.460Z,99.90
2018-10-19T06:44:08.922Z,99.90
2018-10-19T06:46:37.069Z,99.90
2018-10-19T06:49:05.279Z,99.90
2018-10-19T06:51:33.384Z,99.90
2018-10-19T06:54:01.484Z,99.90
2018-10-19T06:56:29.590Z,99.90
2018-10-19T06:58:57.721Z,99.90
2018-10-19T07:01:25.813Z,99.90
2018-10-19T07:03:53.948Z,99.90
2018-10-19T07:06:22.053Z,99.90
2018-10-19T07:08:50.232Z,99.90
2018-10-19T07:11:18.353Z,99.90
2018-10-19T07:13:46.459Z,99.90
2018-10-19T07:16:14.560Z,99.90
2018-10-19T07:18:42.660Z,99.90
2018-10-19T07:21:10.780Z,99.90
2018-10-19T07:23:38.871Z,99.90
2018-10-19T07:26:07.045Z,99.90
2018-10-19T07:28:35.108Z,99.90
2018-10-19T07:31:03.232Z,99.90
2018-10-19T07:33:31.349Z,99.90
2018-10-19T07:35:59.461Z,99.90
2018-10-19T07:38:27.589Z,99.90
2018-10-19T07:40:55.971Z,99.90
2018-10-19T07:43:24.107Z,99.90
2018-10-19T07:45:52.224Z,99.90
2018-10-19T07:48:20.356Z,99.90
2018-10-19T07:50:48.503Z,99.90
2018-10-19T07:53:16.636Z,99.90
2018-10-19T07:55:44.724Z,99.90
2018-10-19T07:58:12.876Z,99.90
2018-10-19T08:00:40.987Z,99.90
2018-10-19T08:03:09.103Z,99.90
2018-10-19T08:05:37.219Z,99.90
2018-10-19T08:08:05.402Z,99.90
2018-10-19T08:10:33.592Z,99.90
2018-10-19T08:13:01.719Z,99.90
2018-10-19T08:15:29.811Z,99.90
2018-10-19T08:17:57.929Z,99.90
2018-10-19T08:20:26.037Z,99.90
2018-10-19T08:22:54.403Z,99.90
2018-10-19T08:25:22.480Z,99.90
2018-10-19T08:27:50.581Z,99.90
2018-10-19T08:30:18.711Z,99.90
2018-10-19T08:32:46.817Z,99.90
2018-10-19T08:35:14.979Z,99.30
2018-10-19T08:37:43.047Z,99.30
2018-10-19T08:40:11.168Z,99.00
2018-10-19T08:42:39.285Z,99.30
2018-10-19T08:45:07.606Z,98.70
2018-10-19T08:47:35.699Z,99.00
2018-10-19T08:50:03.813Z,97.70
2018-10-19T08:52:31.915Z,98.00
2018-10-19T08:55:00.068Z,98.60
2018-10-19T08:57:28.132Z,98.30
2018-10-19T08:59:56.244Z,97.50
2018-10-19T09:02:24.363Z,96.90
2018-10-19T09:04:52.509Z,96.20
2018-10-19T09:07:20.619Z,96.50
2018-10-19T09:09:48.726Z,97.30
2018-10-19T09:12:16.822Z,96.80
2018-10-19T09:14:51.279Z,96.90
2018-10-19T09:17:25.841Z,96.50
2018-10-19T09:19:54.234Z,95.70
2018-10-19T09:22:22.395Z,95.90
2018-10-19T09:24:50.872Z,96.00
2018-10-19T09:27:19.144Z,96.40
2018-10-19T09:29:47.436Z,96.10
2018-10-19T09:32:15.674Z,95.80
2018-10-19T09:34:43.792Z,94.50
2018-10-19T09:37:12.574Z,94.50
2018-10-19T09:39:40.729Z,94.10
2018-10-19T09:42:09.369Z,94.00
2018-10-19T09:44:37.479Z,93.80
2018-10-19T09:47:05.739Z,95.10
2018-10-19T09:49:33.836Z,94.20
2018-10-19T09:52:01.944Z,93.20
2018-10-19T09:54:30.083Z,93.60
2018-10-19T09:56:58.269Z,93.00
2018-10-19T09:59:26.338Z,91.10
2018-10-19T10:01:54.483Z,92.10
2018-10-19T10:04:22.561Z,91.20
2018-10-19T10:06:50.671Z,90.80
2018-10-19T10:09:18.802Z,91.20
2018-10-19T10:11:46.916Z,88.80
2018-10-19T10:14:15.021Z,90.40
2018-10-19T10:16:43.115Z,89.30
2018-10-19T10:19:11.293Z,90.50
2018-10-19T10:21:39.356Z,91.00
2018-10-19T10:24:07.844Z,89.70
2018-10-19T10:26:36.095Z,90.80
2018-10-19T10:29:04.248Z,90.70
2018-10-19T10:31:32.464Z,89.80
2018-10-19T10:34:00.638Z,90.90
2018-10-19T10:36:28.728Z,90.20
2018-10-19T10:38:56.920Z,91.70
2018-10-19T10:41:24.983Z,89.80
2018-10-19T10:43:53.104Z,90.50
2018-10-19T10:46:21.216Z,90.30
2018-10-19T10:48:49.356Z,90.50
2018-10-19T10:51:17.469Z,90.50
2018-10-19T10:53:45.576Z,90.00
2018-10-19T10:56:13.694Z,89.70
2018-10-19T10:58:41.819Z,89.30
2018-10-19T11:01:09.995Z,88.70
2018-10-19T11:03:38.088Z,88.00
2018-10-19T11:06:06.196Z,88.40
2018-10-19T11:08:34.314Z,90.00
2018-10-19T11:11:10.005Z,89.70
2018-10-19T11:13:38.855Z,89.20
2018-10-19T11:16:07.264Z,88.60
2018-10-19T11:18:35.583Z,89.10
2018-10-19T11:21:03.895Z,89.50
2018-10-19T11:23:32.000Z,88.80
2018-10-19T11:26:00.107Z,87.90
2018-10-19T11:28:28.333Z,88.10
2018-10-19T11:30:56.443Z,88.00
2018-10-19T11:33:24.589Z,88.30
2018-10-19T11:35:52.692Z,88.10
2018-10-19T11:38:20.803Z,87.00
2018-10-19T11:40:48.930Z,86.20
2018-10-19T11:43:17.106Z,86.80
2018-10-19T11:45:45.171Z,88.40
2018-10-19T11:48:13.293Z,88.20
2018-10-19T11:50:41.412Z,86.70
2018-10-19T11:53:09.540Z,87.50
2018-10-19T11:55:37.640Z,87.10
2018-10-19T11:58:05.870Z,87.60
2018-10-19T12:00:33.950Z,87.00
2018-10-19T12:03:02.052Z,85.90
2018-10-19T12:05:30.157Z,87.40
2018-10-19T12:07:58.305Z,88.40
2018-10-19T12:10:26.425Z,88.80
2018-10-19T12:12:54.571Z,89.00
2018-10-19T12:15:22.651Z,86.50
2018-10-19T12:17:50.743Z,86.70
2018-10-19T12:20:19.346Z,88.40
2018-10-19T12:22:47.455Z,88.20
2018-10-19T12:25:16.460Z,87.10
2018-10-19T12:27:44.462Z,86.90
2018-10-19T12:30:13.136Z,84.60
2018-10-19T12:32:41.439Z,85.00
2018-10-19T12:35:10.869Z,84.60
2018-10-19T12:37:39.058Z,85.20
2018-10-19T12:40:07.912Z,84.80
2018-10-19T12:42:36.388Z,84.70
2018-10-19T12:45:05.184Z,85.00
2018-10-19T12:47:36.767Z,83.20
2018-10-19T12:50:05.195Z,82.70
2018-10-19T12:52:33.325Z,84.30
2018-10-19T12:55:01.469Z,83.20
2018-10-19T12:57:29.626Z,84.40
2018-10-19T12:59:57.708Z,83.90
2018-10-19T13:02:25.973Z,82.30
2018-10-19T13:04:54.080Z,83.40
2018-10-19T13:07:22.415Z,84.80
2018-10-19T13:09:50.609Z,84.30
2018-10-19T13:12:18.746Z,82.80
2018-10-19T13:14:46.858Z,82.70
2018-10-19T13:17:14.985Z,82.00
2018-10-19T13:19:43.096Z,81.70
2018-10-19T13:22:11.200Z,81.50
2018-10-19T13:24:39.316Z,82.30
2018-10-19T13:27:07.526Z,80.30
2018-10-19T13:29:35.633Z,79.40
2018-10-19T13:32:03.812Z,79.90
2018-10-19T13:34:31.926Z,82.70
2018-10-19T13:37:00.024Z,81.30
2018-10-19T13:39:28.275Z,83.40
2018-10-19T13:41:56.376Z,82.60
2018-10-19T13:44:24.598Z,81.60
2018-10-19T13:46:53.551Z,80.80
2018-10-19T13:49:21.696Z,81.10
2018-10-19T13:51:49.809Z,81.30
2018-10-19T13:54:17.928Z,80.90
2018-10-19T13:56:46.022Z,81.80
2018-10-19T13:59:14.262Z,82.70
2018-10-19T14:01:42.307Z,83.00
2018-10-19T14:04:10.436Z,82.00
2018-10-19T14:06:38.532Z,81.90
2018-10-19T14:09:08.022Z,79.60
2018-10-19T14:11:36.112Z,79.70
2018-10-19T14:14:04.516Z,80.10
2018-10-19T14:16:32.691Z,80.30
2018-10-19T14:19:01.018Z,80.60
2018-10-19T14:21:29.054Z,80.60
2018-10-19T14:23:57.193Z,80.70
2018-10-19T14:26:25.334Z,80.60
2018-10-19T14:28:53.445Z,78.50
2018-10-19T14:31:21.572Z,77.40
2018-10-19T14:33:49.735Z,77.90
2018-10-19T14:36:17.844Z,77.70
2018-10-19T14:38:45.943Z,77.40
2018-10-19T14:41:14.137Z,77.00
2018-10-19T14:43:42.335Z,76.30
2018-10-19T14:46:10.435Z,76.10
2018-10-19T14:48:38.567Z,76.40
2018-10-19T14:51:06.764Z,76.90
2018-10-19T14:53:34.912Z,77.10
2018-10-19T14:56:03.026Z,78.70
2018-10-19T14:58:31.146Z,78.50
2018-10-19T15:00:59.438Z,77.70
2018-10-19T15:03:27.536Z,77.40
2018-10-19T15:05:55.652Z,77.60
2018-10-19T15:08:23.868Z,78.70
2018-10-19T15:10:52.202Z,78.70
2018-10-19T15:13:20.142Z,78.60
2018-10-19T15:15:48.290Z,78.30
2018-10-19T15:18:16.519Z,78.00
2018-10-19T15:20:44.765Z,78.80
2018-10-19T15:23:12.912Z,79.60
2018-10-19T15:25:41.191Z,80.50
2018-10-19T15:28:09.375Z,81.40
2018-10-19T15:30:37.483Z,81.10
2018-10-19T15:33:06.216Z,81.10
2018-10-19T15:35:34.271Z,81.90
2018-10-19T15:38:02.519Z,81.50
2018-10-19T15:40:31.557Z,80.60
2018-10-19T15:42:59.680Z,80.50
2018-10-19T15:45:27.851Z,80.60
2018-10-19T15:47:56.009Z,81.10
2018-10-19T15:50:24.112Z,82.00
2018-10-19T15:52:52.208Z,82.30
2018-10-19T15:55:20.452Z,83.10
2018-10-19T15:57:48.679Z,82.70
2018-10-19T16:00:16.833Z,82.60
2018-10-19T16:02:44.973Z,83.00
2018-10-19T16:05:13.091Z,83.40
2018-10-19T16:07:41.232Z,83.40
2018-10-19T16:10:10.384Z,83.10
2018-10-19T16:12:39.311Z,83.70
2018-10-19T16:15:08.847Z,83.00
2018-10-19T16:17:36.998Z,83.10
2018-10-19T16:20:06.684Z,82.80
2018-10-19T16:22:35.316Z,82.90
2018-10-19T16:25:03.442Z,83.70
2018-10-19T16:27:31.619Z,83.90
2018-10-19T16:30:09.528Z,84.20
2018-10-19T16:32:38.125Z,83.80
2018-10-19T16:35:06.254Z,83.60
2018-10-19T16:37:34.580Z,83.60
2018-10-19T16:40:02.708Z,83.90
2018-10-19T16:42:30.815Z,83.60
2018-10-19T16:44:58.921Z,83.40
2018-10-19T16:47:27.036Z,83.50
2018-10-19T16:49:55.156Z,84.00
2018-10-19T16:52:23.283Z,83.30
2018-10-19T16:54:51.404Z,82.50
2018-10-19T16:57:19.516Z,82.80
2018-10-19T16:59:47.741Z,83.20
2018-10-19T17:02:16.038Z,83.30
2018-10-19T17:04:45.189Z,83.40
2018-10-19T17:07:14.132Z,83.40
2018-10-19T17:09:42.256Z,82.80
2018-10-19T17:12:10.488Z,82.30
2018-10-19T17:14:38.544Z,82.70
2018-10-19T17:17:06.928Z,84.70
2018-10-19T17:19:36.509Z,85.20
2018-10-19T17:22:05.034Z,86.10
2018-10-19T17:24:33.150Z,87.00
2018-10-19T17:27:01.277Z,87.70
2018-10-19T17:29:29.392Z,88.00
2018-10-19T17:31:57.515Z,88.60
2018-10-19T17:34:25.632Z,88.10
2018-10-19T17:36:53.801Z,88.50
2018-10-19T17:39:21.887Z,88.60
2018-10-19T17:41:50.037Z,89.00
2018-10-19T17:44:18.263Z,89.20
2018-10-19T17:46:46.372Z,89.70
2018-10-19T17:49:14.722Z,89.70
2018-10-19T17:51:43.505Z,89.00
2018-10-19T17:54:11.898Z,89.10
2018-10-19T17:56:40.230Z,89.50
2018-10-19T17:59:08.379Z,89.60
2018-10-19T18:01:36.536Z,89.00
2018-10-19T18:04:04.763Z,88.80
2018-10-19T18:06:32.949Z,89.10
2018-10-19T18:09:01.096Z,89.00
2018-10-19T18:11:29.189Z,89.40
2018-10-19T18:13:57.347Z,89.90
2018-10-19T18:16:28.501Z,90.40
2018-10-19T18:18:56.891Z,90.60
2018-10-19T18:21:25.054Z,90.70
2018-10-19T18:23:53.144Z,90.70
2018-10-19T18:26:21.244Z,91.20
2018-10-19T18:28:49.366Z,91.30
2018-10-19T18:31:17.529Z,90.70
2018-10-19T18:33:45.636Z,90.50
2018-10-19T18:36:14.001Z,91.20
2018-10-19T18:38:42.108Z,91.20
2018-10-19T18:41:10.367Z,91.40
2018-10-19T18:43:38.427Z,92.10
2018-10-19T18:46:06.645Z,92.20
2018-10-19T18:48:34.752Z,92.30
2018-10-19T18:51:02.956Z,92.60
2018-10-19T18:53:31.104Z,92.80
2018-10-19T18:55:59.232Z,93.60
2018-10-19T18:58:27.340Z,93.80
2018-10-19T19:00:55.590Z,93.70
2018-10-19T19:03:23.734Z,93.70
2018-10-19T19:05:51.826Z,93.60
2018-10-19T19:08:19.936Z,93.10
2018-10-19T19:10:48.032Z,92.50
2018-10-19T19:13:21.623Z,92.60
2018-10-19T19:15:49.730Z,92.60
2018-10-19T19:18:17.832Z,92.80
2018-10-19T19:20:45.957Z,93.50
2018-10-19T19:23:14.095Z,93.70
2018-10-19T19:25:47.672Z,93.40
2018-10-19T19:28:15.780Z,93.40
2018-10-19T19:30:43.883Z,92.90
2018-10-19T19:33:17.343Z,92.90
2018-10-19T19:35:45.444Z,93.20
2018-10-19T19:38:13.624Z,93.60
2018-10-19T19:40:47.060Z,93.60
2018-10-19T19:43:15.152Z,93.30
2018-10-19T19:45:43.251Z,93.90
2018-10-19T19:48:16.852Z,93.80
2018-10-19T19:50:45.091Z,93.60
2018-10-19T19:53:13.263Z,93.20
2018-10-19T19:55:41.331Z,93.20
2018-10-19T19:58:09.450Z,93.60
2018-10-19T20:00:37.556Z,93.80
2018-10-19T20:03:05.755Z,93.70
2018-10-19T20:05:33.863Z,93.50
2018-10-19T20:08:02.153Z,93.90
2018-10-19T20:10:30.199Z,94.40
2018-10-19T20:12:58.308Z,94.50
2018-10-19T20:15:26.404Z,94.00
2018-10-19T20:17:54.559Z,94.50
2018-10-19T20:20:22.676Z,94.80
2018-10-19T20:22:50.789Z,94.70
2018-10-19T20:25:18.904Z,94.70
2018-10-19T20:27:47.004Z,94.70
2018-10-19T20:30:15.123Z,94.80
2018-10-19T20:32:43.220Z,95.20
2018-10-19T20:35:11.527Z,95.20
2018-10-19T20:37:39.467Z,95.30
2018-10-19T20:40:07.687Z,94.70
2018-10-19T20:42:35.816Z,94.70
2018-10-19T20:45:04.428Z,95.10
2018-10-19T20:47:32.527Z,95.30
2018-10-19T20:50:00.793Z,95.10
2018-10-19T20:52:28.938Z,95.40
2018-10-19T20:54:57.145Z,95.40
2018-10-19T20:57:25.276Z,95.10
2018-10-19T20:59:53.408Z,95.00
2018-10-19T21:02:21.630Z,95.20
2018-10-19T21:04:49.920Z,95.40
2018-10-19T21:07:18.323Z,95.40
2018-10-19T21:09:46.528Z,95.10
2018-10-19T21:12:14.660Z,95.10
2018-10-19T21:14:42.792Z,95.50
2018-10-19T21:17:10.917Z,95.50
2018-10-19T21:19:39.047Z,95.20
2018-10-19T21:22:07.249Z,95.40
2018-10-19T21:24:35.400Z,95.80
2018-10-19T21:27:03.530Z,95.80
2018-10-19T21:29:31.826Z,95.80
2018-10-19T21:32:00.007Z,95.80
2018-10-19T21:34:28.110Z,95.80
2018-10-19T21:36:56.327Z,96.20
2018-10-19T21:39:24.494Z,96.00
2018-10-19T21:41:52.571Z,95.80
2018-10-19T21:44:20.740Z,95.80
2018-10-19T21:46:48.854Z,96.10
2018-10-19T21:49:17.084Z,96.00
2018-10-19T21:51:45.296Z,96.30
2018-10-19T21:54:13.327Z,96.10
2018-10-19T21:56:41.423Z,96.10
2018-10-19T21:59:09.646Z,96.40
2018-10-19T22:01:37.675Z,96.50
2018-10-19T22:04:06.076Z,96.70
2018-10-19T22:06:34.208Z,96.90
2018-10-19T22:09:02.324Z,96.60
2018-10-19T22:11:30.432Z,96.70
2018-10-19T22:13:58.536Z,96.40
2018-10-19T22:16:26.653Z,95.80
2018-10-19T22:18:54.780Z,95.70
2018-10-19T22:21:22.871Z,95.30
2018-10-19T22:23:50.963Z,95.60
2018-10-19T22:26:19.379Z,95.50
2018-10-19T22:28:47.408Z,95.80
2018-10-19T22:31:15.521Z,95.60
2018-10-19T22:33:43.671Z,95.80
2018-10-19T22:36:11.769Z,95.80
2018-10-19T22:38:39.896Z,95.70
2018-10-19T22:41:08.018Z,95.80
2018-10-19T22:43:36.105Z,95.70
2018-10-19T22:46:04.247Z,95.90
2018-10-19T22:48:32.391Z,95.90
2018-10-19T22:51:00.494Z,96.20
2018-10-19T22:53:28.707Z,96.10
2018-10-19T22:55:56.811Z,95.70
2018-10-19T22:58:24.908Z,95.60
2018-10-19T23:00:53.170Z,95.90
2018-10-19T23:03:21.276Z,96.00
2018-10-19T23:05:49.435Z,95.80
2018-10-19T23:08:17.731Z,95.50
2018-10-19T23:10:45.914Z,95.20
2018-10-19T23:13:14.150Z,94.90
2018-10-19T23:15:42.275Z,95.20
2018-10-19T23:18:10.376Z,95.20
2018-10-19T23:20:38.490Z,94.90
2018-10-19T23:23:06.635Z,94.90
2018-10-19T23:25:34.723Z,95.40
2018-10-19T23:28:02.846Z,95.90
2018-10-19T23:30:31.056Z,95.90
2018-10-19T23:32:59.120Z,95.80
2018-10-19T23:35:27.221Z,95.80
2018-10-19T23:37:55.338Z,95.70
2018-10-19T23:40:23.443Z,95.50
2018-10-19T23:42:51.552Z,95.60
2018-10-19T23:45:19.664Z,95.80
2018-10-19T23:47:47.759Z,95.60
2018-10-19T23:50:15.868Z,95.80
2018-10-19T23:52:43.988Z,95.90
2018-10-19T23:55:12.161Z,96.40
2018-10-19T23:57:40.232Z,96.40
